createdAt,value
2023-04-07T00:01:24.083Z,32.65
2023-04-07T00:03:54.585Z,34.25
2023-04-07T00:06:25.203Z,33.70
2023-04-07T00:08:55.713Z,33.67
2023-04-07T00:11:25.954Z,32.50
2023-04-07T00:13:56.467Z,32.78
2023-04-07T00:16:27.423Z,33.00
2023-04-07T00:19:06.650Z,33.28
2023-04-07T00:21:42.094Z,34.42
2023-04-07T00:24:14.429Z,35.35
2023-04-07T00:27:13.938Z,35.08
2023-04-07T00:29:46.238Z,34.85
2023-04-07T00:32:16.631Z,33.97
2023-04-07T00:34:46.968Z,32.83
2023-04-07T00:37:17.209Z,34.40
2023-04-07T00:39:49.166Z,33.80
2023-04-07T00:42:19.520Z,33.55
2023-04-07T00:44:49.967Z,32.97
2023-04-07T00:47:20.416Z,33.85
2023-04-07T00:49:50.975Z,33.88
2023-04-07T00:52:29.681Z,33.83
2023-04-07T00:55:02.048Z,32.63
2023-04-07T00:57:32.424Z,32.25
2023-04-07T01:00:02.994Z,32.77
2023-04-07T01:02:44.839Z,31.05
2023-04-07T01:05:20.095Z,31.85
2023-04-07T01:08:03.776Z,33.40
2023-04-07T01:10:55.795Z,32.58
2023-04-07T01:13:27.736Z,32.08
2023-04-07T01:16:12.358Z,35.10
2023-04-07T01:18:51.165Z,33.90
2023-04-07T01:21:22.369Z,30.52
2023-04-07T01:26:42.015Z,33.00
2023-04-07T01:29:39.861Z,32.38
2023-04-07T01:32:14.314Z,34.42
2023-04-07T01:34:45.118Z,35.22
2023-04-07T01:37:16.491Z,32.58
2023-04-07T01:39:47.298Z,33.47
2023-04-07T01:42:19.503Z,34.05
2023-04-07T01:44:50.947Z,33.53
2023-04-07T01:47:22.063Z,33.92
2023-04-07T01:49:53.959Z,32.28
2023-04-07T01:52:24.820Z,32.15
2023-04-07T01:54:57.665Z,32.65
2023-04-07T01:57:29.372Z,32.88
2023-04-07T02:00:04.834Z,32.13
2023-04-07T02:02:49.339Z,34.30
2023-04-07T02:05:23.577Z,32.90
2023-04-07T02:08:02.370Z,34.92
2023-04-07T02:10:37.972Z,32.97
2023-04-07T02:13:11.370Z,35.38
2023-04-07T02:15:43.967Z,33.00
2023-04-07T02:18:17.377Z,31.98
2023-04-07T02:20:48.749Z,35.13
2023-04-07T02:23:19.748Z,33.80
2023-04-07T02:25:49.890Z,35.03
2023-04-07T02:28:20.245Z,33.43
2023-04-07T02:30:50.410Z,34.45
2023-04-07T02:33:20.529Z,34.20
2023-04-07T02:35:50.908Z,33.58
2023-04-07T02:38:20.996Z,34.30
2023-04-07T02:40:51.093Z,36.17
2023-04-07T02:43:23.156Z,34.95
2023-04-07T02:45:54.749Z,35.08
2023-04-07T02:48:26.534Z,33.13
2023-04-07T02:50:56.989Z,34.45
2023-04-07T02:53:27.268Z,33.87
2023-04-07T02:55:57.618Z,33.77
2023-04-07T02:58:27.951Z,36.42
2023-04-07T03:00:58.091Z,34.47
2023-04-07T03:03:31.873Z,36.25
2023-04-07T03:06:14.025Z,34.60
2023-04-07T03:09:04.199Z,34.65
2023-04-07T03:11:34.413Z,35.20
2023-04-07T03:14:04.465Z,36.55
2023-04-07T03:16:35.890Z,36.45
2023-04-07T03:19:14.960Z,36.17
2023-04-07T03:21:53.801Z,37.60
2023-04-07T03:24:24.036Z,37.90
2023-04-07T03:26:54.460Z,35.75
2023-04-07T03:29:38.708Z,40.55
2023-04-07T03:32:11.391Z,39.45
2023-04-07T03:34:41.669Z,42.38
2023-04-07T03:37:12.001Z,44.75
2023-04-07T03:39:43.434Z,45.20
2023-04-07T03:42:36.198Z,41.35
2023-04-07T03:45:10.136Z,44.70
2023-04-07T03:47:45.186Z,49.25
2023-04-07T03:50:15.759Z,44.50
2023-04-07T03:53:11.877Z,43.45
2023-04-07T03:55:42.319Z,41.30
2023-04-07T03:58:21.864Z,43.40
2023-04-07T04:00:52.639Z,45.63
2023-04-07T04:03:23.092Z,41.30
2023-04-07T04:06:08.169Z,46.13
2023-04-07T04:08:38.362Z,44.65
2023-04-07T04:11:09.001Z,42.67
2023-04-07T04:13:47.228Z,42.80
2023-04-07T04:16:17.852Z,43.35
2023-04-07T04:18:50.155Z,44.15
2023-04-07T04:21:20.950Z,44.33
2023-04-07T04:23:51.382Z,42.20
2023-04-07T04:26:21.775Z,45.30
2023-04-07T04:28:51.946Z,45.15
2023-04-07T04:31:24.151Z,41.90
2023-04-07T04:33:55.072Z,42.33
2023-04-07T04:36:27.214Z,40.08
2023-04-07T04:39:02.073Z,40.20
2023-04-07T04:41:32.832Z,40.47
2023-04-07T04:46:35.026Z,44.97
2023-04-07T04:49:05.550Z,40.17
2023-04-07T04:51:37.398Z,38.08
2023-04-07T04:54:15.515Z,40.38
2023-04-07T04:59:16.473Z,38.95
2023-04-07T05:01:57.056Z,38.73
2023-04-07T05:04:27.473Z,37.08
2023-04-07T05:07:04.928Z,37.83
2023-04-07T05:09:35.744Z,38.00
2023-04-07T05:12:06.213Z,37.30
2023-04-07T05:14:41.803Z,36.20
2023-04-07T05:17:12.452Z,36.45
2023-04-07T05:19:42.821Z,41.05
2023-04-07T05:22:25.859Z,36.72
2023-04-07T05:24:56.064Z,36.45
2023-04-07T05:27:26.356Z,35.47
2023-04-07T05:30:01.385Z,39.20
2023-04-07T05:32:35.777Z,36.03
2023-04-07T05:35:13.018Z,36.10
2023-04-07T05:37:51.432Z,36.50
2023-04-07T05:40:21.833Z,36.85
2023-04-07T05:42:53.224Z,40.25
2023-04-07T05:45:24.050Z,37.58
2023-04-07T05:47:54.342Z,35.13
2023-04-07T05:50:30.511Z,35.38
2023-04-07T05:53:04.177Z,35.05
2023-04-07T05:55:34.765Z,34.47
2023-04-07T06:00:36.914Z,35.17
2023-04-07T06:03:15.013Z,36.83
2023-04-07T06:05:58.810Z,34.65
2023-04-07T06:08:29.681Z,33.38
2023-04-07T06:10:59.941Z,30.60
2023-04-07T06:13:30.316Z,31.52
2023-04-07T06:16:00.592Z,31.05
2023-04-07T06:18:30.781Z,30.90
2023-04-07T06:21:02.310Z,30.42
2023-04-07T06:23:32.534Z,29.35
2023-04-07T06:26:02.771Z,30.05
2023-04-07T06:28:33.194Z,30.30
2023-04-07T06:31:03.548Z,28.03
2023-04-07T06:33:33.948Z,28.30
2023-04-07T06:36:04.510Z,30.85
2023-04-07T06:38:35.092Z,27.67
2023-04-07T06:41:05.513Z,27.83
2023-04-07T06:43:36.021Z,29.03
2023-04-07T06:46:07.745Z,27.80
2023-04-07T06:48:38.086Z,28.43
2023-04-07T06:51:08.242Z,26.23
2023-04-07T06:53:38.878Z,26.30
2023-04-07T06:56:14.291Z,23.17
2023-04-07T06:58:44.556Z,23.83
2023-04-07T07:01:14.626Z,27.67
2023-04-07T07:03:44.928Z,24.85
2023-04-07T07:06:16.099Z,26.02
2023-04-07T07:11:16.037Z,24.85
2023-04-07T07:13:47.793Z,23.97
2023-04-07T07:16:18.433Z,25.35
2023-04-07T07:18:48.634Z,21.13
2023-04-07T07:21:19.688Z,21.45
2023-04-07T07:26:20.373Z,21.77
2023-04-07T07:28:50.693Z,19.87
2023-04-07T07:31:21.110Z,21.13
2023-04-07T07:33:53.811Z,21.50
2023-04-07T07:36:24.067Z,22.38
2023-04-07T07:38:54.508Z,20.60
2023-04-07T07:41:24.705Z,19.23
2023-04-07T07:43:55.347Z,20.10
2023-04-07T07:46:28.257Z,19.90
2023-04-07T07:48:58.631Z,20.13
2023-04-07T07:51:30.464Z,19.83
2023-04-07T07:54:00.718Z,21.23
2023-04-07T07:56:31.199Z,18.42
2023-04-07T07:59:01.577Z,18.73
2023-04-07T08:01:31.853Z,17.23
2023-04-07T08:04:02.038Z,17.08
2023-04-07T08:06:33.813Z,17.88
2023-04-07T08:09:04.024Z,17.48
2023-04-07T08:11:34.222Z,17.55
2023-04-07T08:14:04.340Z,17.63
2023-04-07T08:16:34.536Z,18.33
2023-04-07T08:19:04.806Z,18.67
2023-04-07T08:21:35.183Z,19.83
2023-04-07T08:24:05.396Z,19.77
2023-04-07T08:26:36.141Z,21.00
2023-04-07T08:29:06.374Z,20.63
2023-04-07T08:31:36.852Z,20.52
2023-04-07T08:34:06.998Z,19.63
2023-04-07T08:36:37.245Z,19.83
2023-04-07T08:39:08.063Z,20.08
2023-04-07T08:41:43.786Z,19.73
2023-04-07T08:44:15.685Z,24.88
2023-04-07T08:46:47.264Z,18.90
2023-04-07T08:49:20.397Z,21.98
2023-04-07T08:51:51.056Z,19.88
2023-04-07T08:54:23.972Z,21.63
2023-04-07T08:56:55.109Z,19.77
2023-04-07T09:01:59.714Z,24.58
2023-04-07T09:04:30.193Z,22.70
2023-04-07T09:07:00.488Z,22.77
2023-04-07T09:09:30.800Z,21.45
2023-04-07T09:12:01.254Z,19.88
2023-04-07T09:14:31.503Z,27.40
2023-04-07T09:17:02.769Z,24.63
2023-04-07T09:22:03.566Z,28.33
2023-04-07T09:24:36.814Z,23.35
2023-04-07T09:27:21.746Z,26.83
2023-04-07T09:29:51.985Z,21.92
2023-04-07T09:32:49.828Z,23.77
2023-04-07T09:35:20.076Z,27.25
2023-04-07T09:38:11.031Z,20.17
2023-04-07T09:40:41.320Z,24.17
2023-04-07T09:43:21.581Z,19.20
2023-04-07T09:45:51.854Z,20.88
2023-04-07T09:48:24.228Z,19.23
2023-04-07T09:50:54.477Z,20.10
2023-04-07T09:53:44.271Z,20.13
2023-04-07T09:56:14.632Z,25.73
2023-04-07T09:58:47.726Z,22.67
2023-04-07T10:01:19.891Z,20.98
2023-04-07T10:03:53.113Z,19.65
2023-04-07T10:06:24.096Z,22.10
2023-04-07T10:08:54.739Z,21.13
2023-04-07T10:11:25.017Z,20.97
2023-04-07T10:13:56.101Z,20.90
2023-04-07T10:16:27.364Z,20.02
2023-04-07T10:18:58.710Z,18.30
2023-04-07T10:24:25.544Z,21.38
2023-04-07T10:27:06.722Z,20.48
2023-04-07T10:32:13.509Z,20.33
2023-04-07T10:34:53.140Z,17.52
2023-04-07T10:37:24.841Z,19.15
2023-04-07T10:40:23.995Z,18.73
2023-04-07T10:42:54.339Z,21.70
2023-04-07T10:45:54.652Z,17.30
2023-04-07T10:48:25.698Z,17.98
2023-04-07T10:51:17.542Z,18.88
2023-04-07T10:54:26.280Z,18.60
2023-04-07T10:57:06.842Z,18.42
2023-04-07T10:59:37.262Z,18.00
2023-04-07T11:02:16.910Z,18.83
2023-04-07T11:04:49.106Z,22.10
2023-04-07T11:07:22.232Z,19.38
2023-04-07T11:09:52.430Z,21.02
2023-04-07T11:12:26.982Z,20.00
2023-04-07T11:14:57.138Z,18.95
2023-04-07T11:17:27.427Z,21.38
2023-04-07T11:19:58.532Z,19.05
2023-04-07T11:22:30.550Z,23.20
2023-04-07T11:25:01.047Z,18.15
2023-04-07T11:27:32.490Z,16.40
2023-04-07T11:32:33.917Z,23.00
2023-04-07T11:35:04.266Z,18.97
2023-04-07T11:37:35.089Z,19.67
2023-04-07T11:40:05.625Z,21.75
2023-04-07T11:42:40.836Z,22.27
2023-04-07T11:45:22.994Z,19.40
2023-04-07T11:47:53.376Z,15.55
2023-04-07T11:50:44.251Z,15.57
2023-04-07T11:53:14.669Z,19.73
2023-04-07T11:55:44.821Z,16.40
2023-04-07T11:58:15.254Z,15.00
2023-04-07T12:00:59.570Z,16.30
2023-04-07T12:03:30.012Z,15.48
2023-04-07T12:06:00.595Z,16.75
2023-04-07T12:08:45.040Z,16.23
2023-04-07T12:11:15.610Z,15.50
2023-04-07T12:13:45.849Z,18.07
2023-04-07T12:16:16.313Z,14.60
2023-04-07T12:18:46.602Z,13.55
2023-04-07T12:21:17.059Z,15.32
2023-04-07T12:23:48.790Z,13.93
2023-04-07T12:26:20.567Z,14.57
2023-04-07T12:28:51.966Z,16.85
2023-04-07T12:31:22.173Z,12.88
2023-04-07T12:33:52.483Z,14.40
2023-04-07T12:36:23.443Z,13.05
2023-04-07T12:38:53.516Z,13.13
2023-04-07T12:41:23.578Z,16.77
2023-04-07T12:43:53.982Z,15.68
2023-04-07T12:46:24.485Z,14.38
2023-04-07T12:48:54.765Z,15.50
2023-04-07T12:51:25.064Z,15.57
2023-04-07T12:53:56.492Z,16.13
2023-04-07T12:56:26.643Z,14.82
2023-04-07T12:58:57.048Z,15.73
2023-04-07T13:01:27.402Z,14.13
2023-04-07T13:03:58.753Z,14.50
2023-04-07T13:06:29.099Z,12.43
2023-04-07T13:08:59.337Z,13.23
2023-04-07T13:11:29.680Z,12.48
2023-04-07T13:14:01.278Z,13.47
2023-04-07T13:16:31.929Z,14.48
2023-04-07T13:19:05.360Z,15.23
2023-04-07T13:21:46.665Z,13.15
2023-04-07T13:24:17.971Z,13.60
2023-04-07T13:26:48.034Z,13.82
2023-04-07T13:29:19.371Z,14.40
2023-04-07T13:34:19.545Z,13.32
2023-04-07T13:36:49.761Z,14.07
2023-04-07T13:39:19.951Z,13.50
2023-04-07T13:41:50.178Z,13.38
2023-04-07T13:44:21.195Z,13.10
2023-04-07T13:46:51.347Z,13.45
2023-04-07T13:49:22.059Z,13.52
2023-04-07T13:51:52.638Z,11.10
2023-04-07T13:54:23.031Z,10.88
2023-04-07T13:56:53.844Z,16.23
2023-04-07T13:59:25.201Z,14.02
2023-04-07T14:04:25.371Z,11.65
2023-04-07T14:06:56.389Z,11.67
2023-04-07T14:09:26.576Z,11.30
2023-04-07T14:11:56.735Z,14.63
2023-04-07T14:14:27.263Z,10.23
2023-04-07T14:19:07.094Z,12.70
2023-04-07T14:21:37.255Z,11.95
2023-04-07T14:24:07.316Z,10.93
2023-04-07T14:26:37.412Z,11.93
2023-04-07T14:29:07.422Z,10.70
2023-04-07T14:31:37.779Z,11.50
2023-04-07T14:34:09.672Z,10.57
2023-04-07T14:36:40.066Z,10.38
2023-04-07T14:39:11.220Z,12.73
2023-04-07T14:41:41.433Z,12.70
2023-04-07T14:44:11.643Z,12.10
2023-04-07T14:46:41.779Z,10.45
2023-04-07T14:49:12.706Z,10.03
2023-04-07T14:51:42.974Z,10.70
2023-04-07T14:54:13.088Z,18.88
2023-04-07T14:56:43.681Z,15.55
2023-04-07T14:59:13.881Z,14.73
2023-04-07T15:01:44.225Z,12.25
2023-04-07T15:04:14.744Z,12.45
2023-04-07T15:06:47.298Z,14.00
2023-04-07T15:09:17.887Z,13.15
2023-04-07T15:11:51.068Z,12.03
2023-04-07T15:14:21.667Z,14.45
2023-04-07T15:16:52.912Z,16.25
